Time;durP1;ratioP1;P1;durP2;ratioP2;P2;SDS_P1;SDS_P2;PMS_P1;PMS_P2;Temp;Humidity;BMP_temperature;BMP_pressure;BME280_temperature;BME280_humidity;BME280_pressure;Samples;Min_cycle;Max_cycle;Signal;HPM_P1;HPM_P2
2023/06/04 00:00:36;;;;;;;3.83;3.37;;;14.10;50.30;;;;;;4949286;28;20237;-65
2023/06/04 00:03:01;;;;;;;4.40;3.70;;;13.90;49.60;;;;;;4949191;28;20205;-64
2023/06/04 00:05:27;;;;;;;4.50;4.03;;;13.90;49.80;;;;;;4949045;28;20213;-64
2023/06/04 00:07:52;;;;;;;4.23;3.17;;;13.90;50.00;;;;;;4948690;28;20285;-64
2023/06/04 00:10:18;;;;;;;4.60;3.60;;;13.70;50.00;;;;;;4951247;28;20902;-63
2023/06/04 00:12:44;;;;;;;3.50;3.20;;;13.80;50.90;;;;;;4950474;28;20222;-63
2023/06/04 00:15:10;;;;;;;4.07;2.83;;;13.70;51.10;;;;;;4949353;28;20206;-63
2023/06/04 00:17:35;;;;;;;3.90;3.23;;;13.60;50.80;;;;;;4950036;28;20604;-63
2023/06/04 00:20:01;;;;;;;3.80;2.60;;;13.70;51.20;;;;;;4949302;28;20212;-63
2023/06/04 00:22:27;;;;;;;5.50;2.87;;;13.50;50.80;;;;;;4948861;28;20232;-63
2023/06/04 00:24:52;;;;;;;5.47;2.47;;;13.50;51.00;;;;;;4947663;28;20232;-63
2023/06/04 00:27:18;;;;;;;3.70;2.60;;;13.40;51.90;;;;;;4948423;28;20214;-63
2023/06/04 00:29:44;;;;;;;3.00;2.63;;;13.50;53.40;;;;;;4948835;28;20209;-63
2023/06/04 00:32:09;;;;;;;2.40;2.20;;;13.30;52.10;;;;;;4948675;28;21030;-63
2023/06/04 00:34:35;;;;;;;3.07;2.07;;;13.20;52.30;;;;;;4952248;28;20640;-63
2023/06/04 00:37:03;;;;;;;3.40;2.27;;;13.30;53.20;;;;;;4944960;28;20202;-63
2023/06/04 00:39:29;;;;;;;3.03;2.57;;;13.30;53.30;;;;;;4947545;28;20434;-63
2023/06/04 00:41:55;;;;;;;4.33;2.90;;;13.30;54.30;;;;;;4951660;28;20866;-63
2023/06/04 00:44:23;;;;;;;3.73;2.13;;;13.30;54.00;;;;;;4946431;28;20334;-63
2023/06/04 00:46:49;;;;;;;3.37;2.47;;;13.20;53.10;;;;;;4949039;28;20619;-62
2023/06/04 00:49:15;;;;;;;3.10;1.93;;;13.10;53.30;;;;;;4949107;28;20206;-63
2023/06/04 00:51:40;;;;;;;4.60;2.30;;;13.00;53.10;;;;;;4947783;28;20954;-63
2023/06/04 00:54:08;;;;;;;3.33;2.07;;;12.80;53.40;;;;;;4948179;28;20253;-63
2023/06/04 00:56:36;;;;;;;6.00;2.23;;;12.60;53.80;;;;;;4948307;28;20350;-62
2023/06/04 00:59:02;;;;;;;2.60;2.40;;;12.60;54.50;;;;;;4948101;28;20232;-63
2023/06/04 01:01:48;;;;;;;6.83;2.07;;;12.60;54.70;;;;;;4946760;28;20202;-63
2023/06/04 01:04:25;;;;;;;2.57;2.17;;;12.70;55.20;;;;;;4949838;28;20486;-63
2023/06/04 01:06:53;;;;;;;2.03;1.83;;;12.70;55.80;;;;;;4945129;28;20280;-63
2023/06/04 01:09:18;;;;;;;3.27;2.30;;;12.60;55.60;;;;;;4947999;28;20206;-63
2023/06/04 01:11:44;;;;;;;3.03;2.43;;;12.50;55.90;;;;;;4948634;28;20779;-63
2023/06/04 01:14:10;;;;;;;2.37;2.07;;;12.60;55.50;;;;;;4952354;28;20203;-63
2023/06/04 01:16:47;;;;;;;2.80;2.17;;;12.50;55.80;;;;;;4943545;28;20193;-63
2023/06/04 01:19:41;;;;;;;2.50;2.30;;;12.50;55.80;;;;;;4950107;28;20221;-62
2023/06/04 01:22:16;;;;;;;2.30;1.83;;;12.60;55.70;;;;;;4945489;28;20573;-63
2023/06/04 01:24:51;;;;;;;4.43;2.10;;;12.40;56.00;;;;;;4939477;28;20236;-63
2023/06/04 01:27:17;;;;;;;8.93;5.00;;;12.30;56.50;;;;;;4948398;28;20551;-63
2023/06/04 01:29:42;;;;;;;3.33;3.03;;;12.20;56.90;;;;;;4948871;28;20213;-63
2023/06/04 01:32:08;;;;;;;2.67;2.47;;;12.20;57.00;;;;;;4948635;28;20220;-63
2023/06/04 01:34:44;;;;;;;2.73;2.17;;;12.20;57.40;;;;;;4946144;28;20213;-64
2023/06/04 01:37:11;;;;;;;3.60;2.20;;;12.20;57.50;;;;;;4948049;28;20782;-63
2023/06/04 01:39:36;;;;;;;2.13;1.93;;;12.20;57.40;;;;;;4947938;28;20210;-64
2023/06/04 01:42:02;;;;;;;2.23;1.80;;;12.20;57.50;;;;;;4947302;28;20206;-63
2023/06/04 01:44:27;;;;;;;3.00;2.30;;;12.10;57.90;;;;;;4950418;28;20212;-63
2023/06/04 01:46:53;;;;;;;3.80;2.20;;;11.80;58.90;;;;;;4950433;28;20197;-64
2023/06/04 01:49:18;;;;;;;2.93;1.93;;;11.70;59.50;;;;;;4945804;28;20601;-64
2023/06/04 01:51:44;;;;;;;5.10;1.80;;;11.90;59.80;;;;;;4948832;28;20221;-64
2023/06/04 01:54:09;;;;;;;3.83;2.30;;;11.80;59.60;;;;;;4948715;28;20728;-63
2023/06/04 01:56:35;;;;;;;4.00;2.37;;;11.80;60.30;;;;;;4946266;28;20299;-64
2023/06/04 01:59:01;;;;;;;2.80;1.97;;;11.80;60.20;;;;;;4948439;28;20876;-63
2023/06/04 02:01:26;;;;;;;2.30;1.80;;;11.70;60.50;;;;;;4950550;28;20202;-63
2023/06/04 02:03:52;;;;;;;2.33;2.00;;;11.80;61.50;;;;;;4948178;28;20237;-63
2023/06/04 02:06:18;;;;;;;1.77;1.67;;;11.80;60.70;;;;;;4947966;28;20214;-62
2023/06/04 02:08:43;;;;;;;2.93;1.93;;;11.70;60.90;;;;;;4947095;28;20201;-63
2023/06/04 02:11:09;;;;;;;1.93;1.73;;;11.70;61.40;;;;;;4948179;28;20198;-63
2023/06/04 02:13:34;;;;;;;2.67;2.47;;;11.50;62.00;;;;;;4948623;28;20604;-64
2023/06/04 02:16:00;;;;;;;4.43;2.40;;;11.50;62.30;;;;;;4948277;28;20259;-64
2023/06/04 02:18:25;;;;;;;3.23;2.37;;;11.50;62.80;;;;;;4947232;28;20300;-63
2023/06/04 02:20:51;;;;;;;3.87;2.10;;;11.40;63.40;;;;;;4946801;28;20676;-64
2023/06/04 02:23:19;;;;;;;5.77;2.20;;;11.40;63.60;;;;;;4947277;28;20605;-64
2023/06/04 02:25:45;;;;;;;2.30;2.10;;;11.30;63.90;;;;;;4947571;28;20579;-63
2023/06/04 02:28:11;;;;;;;2.63;2.13;;;11.40;64.30;;;;;;4947801;28;20297;-64
2023/06/04 02:30:36;;;;;;;3.03;2.13;;;11.20;64.20;;;;;;4952293;28;20288;-64
2023/06/04 02:33:03;;;;;;;2.40;2.23;;;11.30;64.60;;;;;;4946391;28;20381;-64
2023/06/04 02:35:30;;;;;;;3.20;2.03;;;11.20;65.00;;;;;;4961526;28;20224;-64
2023/06/04 02:37:59;;;;;;;2.83;2.30;;;11.20;65.50;;;;;;4960544;28;20288;-64
2023/06/04 02:40:25;;;;;;;3.03;2.30;;;11.30;65.50;;;;;;4956716;28;20706;-64
2023/06/04 02:42:52;;;;;;;2.80;2.57;;;11.40;65.10;;;;;;4961208;28;20197;-63
2023/06/04 02:45:18;;;;;;;2.40;2.20;;;11.40;65.40;;;;;;4960734;28;20201;-64
2023/06/04 02:47:43;;;;;;;5.93;2.50;;;11.20;66.30;;;;;;4960765;28;20208;-64
2023/06/04 02:50:09;;;;;;;3.00;1.97;;;11.20;67.10;;;;;;4960515;28;20225;-64
2023/06/04 02:52:36;;;;;;;3.83;2.87;;;11.10;67.30;;;;;;4958425;28;20287;-64
2023/06/04 02:55:03;;;;;;;2.30;2.10;;;11.10;67.40;;;;;;4955771;28;20195;-64
2023/06/04 02:57:30;;;;;;;4.27;2.50;;;11.00;67.70;;;;;;4957652;28;20201;-63
2023/06/04 02:59:55;;;;;;;2.80;2.43;;;10.90;68.20;;;;;;4958598;28;20212;-64
2023/06/04 03:02:21;;;;;;;4.10;2.17;;;11.00;68.40;;;;;;4960385;28;20208;-63
2023/06/04 03:04:47;;;;;;;3.13;2.23;;;10.80;69.10;;;;;;4958220;28;20246;-64
2023/06/04 03:07:13;;;;;;;2.77;2.40;;;10.80;70.00;;;;;;4960123;28;20205;-64
2023/06/04 03:09:38;;;;;;;2.87;2.67;;;10.90;70.30;;;;;;4960037;28;20233;-64
2023/06/04 03:12:04;;;;;;;2.57;2.37;;;11.00;69.90;;;;;;4960423;28;20454;-64
2023/06/04 03:14:32;;;;;;;2.13;1.80;;;10.90;70.20;;;;;;4959939;28;20208;-64
2023/06/04 03:17:07;;;;;;;3.37;2.83;;;10.90;71.40;;;;;;4958667;28;20263;-64
2023/06/04 03:19:35;;;;;;;3.53;2.67;;;11.00;71.90;;;;;;4960216;28;20702;-63
2023/06/04 03:22:00;;;;;;;2.97;2.63;;;11.00;72.30;;;;;;4959721;28;20212;-63
2023/06/04 03:24:26;;;;;;;2.57;2.37;;;10.90;72.30;;;;;;4958150;28;20291;-64
2023/06/04 03:26:51;;;;;;;4.37;2.57;;;10.90;72.60;;;;;;4959976;28;20226;-63
2023/06/04 03:29:17;;;;;;;2.90;2.60;;;10.90;74.40;;;;;;4959305;28;20216;-64
2023/06/04 03:31:44;;;;;;;2.70;2.23;;;11.00;72.90;;;;;;4955103;28;20205;-64
2023/06/04 03:34:10;;;;;;;4.00;2.63;;;10.90;73.10;;;;;;4954890;28;20216;-63
2023/06/04 03:36:37;;;;;;;3.17;2.23;;;10.90;73.10;;;;;;4959609;28;20260;-63
2023/06/04 03:39:04;;;;;;;2.43;2.17;;;11.10;72.80;;;;;;4957883;28;20668;-63
2023/06/04 03:41:30;;;;;;;2.50;2.00;;;11.00;72.70;;;;;;4953719;28;20215;-63
2023/06/04 03:43:55;;;;;;;4.13;1.83;;;11.00;73.20;;;;;;4954945;28;20197;-63
2023/06/04 03:46:21;;;;;;;2.83;2.03;;;11.00;73.60;;;;;;4954818;28;20264;-64
2023/06/04 03:48:46;;;;;;;2.40;2.07;;;10.80;74.00;;;;;;4952220;28;20199;-63
2023/06/04 03:51:12;;;;;;;3.73;2.60;;;10.80;74.60;;;;;;4959343;28;20212;-64
2023/06/04 03:53:37;;;;;;;2.07;1.97;;;10.90;75.30;;;;;;4959607;28;20322;-67
2023/06/04 03:56:03;;;;;;;3.87;1.97;;;10.90;76.20;;;;;;4957932;28;20198;-64
2023/06/04 03:58:28;;;;;;;3.13;2.40;;;10.90;77.30;;;;;;4953257;28;20198;-64
2023/06/04 04:00:54;;;;;;;2.37;2.13;;;11.00;77.70;;;;;;4959150;28;20194;-66
2023/06/04 04:03:20;;;;;;;2.83;2.10;;;10.90;77.30;;;;;;4957185;28;20702;-64
2023/06/04 04:05:45;;;;;;;3.07;2.20;;;10.80;78.10;;;;;;4959326;28;20253;-63
2023/06/04 04:08:11;;;;;;;11.10;2.47;;;10.90;79.00;;;;;;4955017;28;22878;-64
2023/06/04 04:10:37;;;;;;;4.33;2.10;;;10.90;79.10;;;;;;4955487;28;20206;-63
2023/06/04 04:13:02;;;;;;;3.43;2.80;;;11.00;80.60;;;;;;4957120;28;20272;-63
2023/06/04 04:15:28;;;;;;;3.43;2.03;;;11.00;79.90;;;;;;4950829;28;20282;-64
2023/06/04 04:17:55;;;;;;;2.43;2.17;;;11.10;82.20;;;;;;4954268;28;20201;-64
2023/06/04 04:20:20;;;;;;;3.43;2.57;;;11.10;81.10;;;;;;4958452;28;20201;-64
2023/06/04 04:22:46;;;;;;;3.60;2.47;;;11.10;81.20;;;;;;4958815;28;20232;-64
2023/06/04 04:25:11;;;;;;;3.67;2.13;;;11.20;80.80;;;;;;4959088;28;20692;-64
2023/06/04 04:27:40;;;;;;;3.13;2.83;;;11.20;81.80;;;;;;4956606;28;20193;-64
2023/06/04 04:30:06;;;;;;;3.63;2.17;;;11.30;82.40;;;;;;4950612;28;20211;-64
2023/06/04 04:32:32;;;;;;;2.73;2.47;;;11.30;82.10;;;;;;4958845;28;20221;-64
2023/06/04 04:34:58;;;;;;;2.73;1.93;;;11.30;84.40;;;;;;4958399;28;20205;-64
2023/06/04 04:37:24;;;;;;;2.67;2.07;;;11.30;82.80;;;;;;4958490;28;20629;-63
2023/06/04 04:39:51;;;;;;;3.33;2.23;;;11.40;82.30;;;;;;4956617;28;20285;-65
2023/06/04 04:42:17;;;;;;;5.70;2.50;;;11.40;82.40;;;;;;4955007;28;20232;-63
2023/06/04 04:44:47;;;;;;;3.60;2.17;;;11.50;82.50;;;;;;4952556;28;20229;-63
2023/06/04 04:47:13;;;;;;;2.53;2.30;;;11.50;83.70;;;;;;4953992;28;20233;-64
2023/06/04 04:49:38;;;;;;;6.27;2.20;;;11.60;85.10;;;;;;4956384;28;20229;-64
2023/06/04 04:52:04;;;;;;;6.10;2.40;;;11.60;84.40;;;;;;4958377;28;20738;-64
2023/06/04 04:54:29;;;;;;;2.50;1.77;;;11.60;83.40;;;;;;4955644;28;20606;-64
2023/06/04 04:56:55;;;;;;;3.63;2.53;;;11.60;85.00;;;;;;4956707;28;20204;-64
2023/06/04 04:59:20;;;;;;;2.83;1.97;;;11.60;84.40;;;;;;4958123;28;20208;-72
2023/06/04 05:01:46;;;;;;;2.43;2.23;;;11.70;84.40;;;;;;4956130;28;20280;-63
2023/06/04 05:04:11;;;;;;;3.70;2.50;;;11.70;85.50;;;;;;4956672;28;20194;-64
2023/06/04 05:06:37;;;;;;;3.63;2.00;;;11.80;84.80;;;;;;4945474;28;20292;-63
2023/06/04 05:09:03;;;;;;;2.43;2.10;;;11.90;85.10;;;;;;4958461;28;20236;-63
2023/06/04 05:11:29;;;;;;;4.47;2.07;;;12.00;84.40;;;;;;4958064;28;20189;-63
2023/06/04 05:13:55;;;;;;;2.67;2.10;;;12.10;84.20;;;;;;4958267;28;20208;-63
2023/06/04 05:16:22;;;;;;;2.87;2.10;;;12.20;83.80;;;;;;4956331;28;20198;-63
2023/06/04 05:18:51;;;;;;;1.93;1.77;;;12.30;83.70;;;;;;4951608;28;20568;-64
2023/06/04 05:21:17;;;;;;;3.13;2.03;;;12.50;83.70;;;;;;4946391;28;20225;-64
2023/06/04 05:23:45;;;;;;;2.93;2.33;;;12.50;83.80;;;;;;4953782;28;20281;-64
2023/06/04 05:26:10;;;;;;;1.90;1.80;;;12.60;85.30;;;;;;4937632;28;20539;-66
2023/06/04 05:28:36;;;;;;;2.50;2.30;;;12.60;85.30;;;;;;4957812;28;20208;-66
2023/06/04 05:31:02;;;;;;;2.60;2.10;;;12.70;84.20;;;;;;4958100;28;20259;-67
2023/06/04 05:33:30;;;;;;;3.33;1.80;;;12.80;83.00;;;;;;4950847;28;20217;-64
2023/06/04 05:35:57;;;;;;;6.70;2.40;;;12.80;82.10;;;;;;4943854;28;20193;-65
2023/06/04 05:38:25;;;;;;;2.90;2.17;;;12.90;82.40;;;;;;4947581;28;20193;-68
2023/06/04 05:40:52;;;;;;;3.90;2.00;;;12.90;82.00;;;;;;4957914;28;20198;-65
2023/06/04 05:43:17;;;;;;;3.60;2.33;;;13.00;82.40;;;;;;4954654;28;20207;-65
2023/06/04 05:45:43;;;;;;;4.10;2.50;;;13.10;82.40;;;;;;4955954;28;20558;-65
2023/06/04 05:48:08;;;;;;;2.53;2.33;;;13.20;81.30;;;;;;4957644;28;20197;-64
2023/06/04 05:50:34;;;;;;;2.53;2.30;;;13.40;80.10;;;;;;4955060;28;20201;-66
2023/06/04 05:53:00;;;;;;;2.07;1.70;;;13.40;79.90;;;;;;4945873;28;20470;-64
2023/06/04 05:55:25;;;;;;;2.77;2.10;;;13.50;80.00;;;;;;4949229;28;20292;-65
2023/06/04 05:57:51;;;;;;;2.80;2.33;;;13.60;77.80;;;;;;4948981;28;20202;-64
2023/06/04 06:00:17;;;;;;;2.97;2.20;;;13.60;77.80;;;;;;4949992;28;20208;-64
2023/06/04 06:02:43;;;;;;;2.00;1.60;;;13.80;77.50;;;;;;4948102;28;20204;-66
2023/06/04 06:05:09;;;;;;;4.57;2.40;;;14.00;77.90;;;;;;4945999;28;20202;-64
2023/06/04 06:07:35;;;;;;;7.80;2.03;;;14.10;76.20;;;;;;4951385;28;20220;-64
2023/06/04 06:10:01;;;;;;;3.50;2.67;;;14.10;76.30;;;;;;4951677;28;20217;-66
2023/06/04 06:12:26;;;;;;;7.23;2.97;;;14.30;75.50;;;;;;4951437;28;20220;-66
2023/06/04 06:14:52;;;;;;;3.33;2.50;;;14.50;75.60;;;;;;4945928;28;20198;-66
2023/06/04 06:17:17;;;;;;;2.30;2.00;;;14.60;76.40;;;;;;4943839;28;20635;-66
2023/06/04 06:19:43;;;;;;;4.57;2.17;;;14.60;77.10;;;;;;4946629;28;20221;-66
2023/06/04 06:22:08;;;;;;;4.50;2.40;;;14.50;75.40;;;;;;4945390;28;20211;-64
2023/06/04 06:24:34;;;;;;;3.10;2.47;;;14.60;74.50;;;;;;4945620;28;20222;-64
2023/06/04 06:26:59;;;;;;;2.90;2.17;;;14.70;76.00;;;;;;4945553;28;20993;-64
2023/06/04 06:29:25;;;;;;;7.07;2.47;;;14.80;73.90;;;;;;4945476;28;20198;-64
2023/06/04 06:31:50;;;;;;;6.10;2.13;;;15.00;73.10;;;;;;4944903;28;20221;-65
2023/06/04 06:34:16;;;;;;;2.67;2.10;;;15.00;73.80;;;;;;4945607;28;20344;-65
2023/06/04 06:36:42;;;;;;;2.13;1.93;;;15.10;74.00;;;;;;4950278;28;20205;-64
2023/06/04 06:39:08;;;;;;;2.00;1.80;;;15.10;74.10;;;;;;4959727;28;20201;-64
2023/06/04 06:41:34;;;;;;;3.23;2.20;;;15.20;70.80;;;;;;4939874;28;20234;-65
2023/06/04 06:44:00;;;;;;;3.60;1.67;;;15.20;70.50;;;;;;4956334;28;20258;-64
2023/06/04 06:46:25;;;;;;;4.00;2.20;;;15.30;67.20;;;;;;4943226;28;20962;-64
2023/06/04 06:48:51;;;;;;;1.47;1.37;;;15.60;65.20;;;;;;4944925;28;20697;-64
2023/06/04 06:51:17;;;;;;;6.70;1.63;;;15.80;64.20;;;;;;4945518;28;20219;-64
2023/06/04 06:53:43;;;;;;;2.90;2.00;;;16.00;62.00;;;;;;4944281;28;20301;-67
2023/06/04 06:56:08;;;;;;;2.80;1.33;;;16.10;64.30;;;;;;4946385;28;20280;-67
2023/06/04 06:58:34;;;;;;;1.07;1.00;;;16.10;61.20;;;;;;4928609;28;20285;-67
2023/06/04 07:01:00;;;;;;;3.33;1.30;;;16.10;58.10;;;;;;4945890;28;20195;-66
2023/06/04 07:03:26;;;;;;;1.80;1.10;;;16.10;58.40;;;;;;4945356;28;20207;-66
2023/06/04 07:05:52;;;;;;;1.67;1.50;;;16.20;58.90;;;;;;4954333;28;20202;-63
2023/06/04 07:08:17;;;;;;;1.60;1.20;;;16.20;59.20;;;;;;4957025;28;20553;-64
2023/06/04 07:10:43;;;;;;;1.70;1.23;;;16.50;58.20;;;;;;4959939;28;20625;-64
2023/06/04 07:13:08;;;;;;;1.50;1.37;;;16.70;56.80;;;;;;4959508;28;20213;-63
2023/06/04 07:15:34;;;;;;;1.37;1.27;;;16.80;56.70;;;;;;4952643;28;20337;-64
2023/06/04 07:17:59;;;;;;;2.77;1.47;;;16.80;57.20;;;;;;4959445;28;20196;-64
2023/06/04 07:20:25;;;;;;;1.70;1.10;;;16.80;57.00;;;;;;4958563;28;20874;-64
2023/06/04 07:22:50;;;;;;;1.57;0.97;;;16.90;55.50;;;;;;4958002;28;20236;-64
2023/06/04 07:25:16;;;;;;;1.93;1.13;;;16.90;54.30;;;;;;4957904;28;20577;-64
2023/06/04 07:27:42;;;;;;;3.13;1.53;;;17.10;55.10;;;;;;4954759;28;20212;-64
2023/06/04 07:30:09;;;;;;;2.07;1.20;;;17.10;54.00;;;;;;4954663;28;20304;-64
2023/06/04 07:32:34;;;;;;;5.37;1.40;;;17.20;53.90;;;;;;4956468;28;20575;-64
2023/06/04 07:34:59;;;;;;;2.23;1.50;;;17.20;51.60;;;;;;4957737;28;20702;-64
2023/06/04 07:37:25;;;;;;;2.63;0.90;;;17.40;50.90;;;;;;4957641;28;20210;-64
2023/06/04 07:39:50;;;;;;;1.57;1.10;;;17.40;51.90;;;;;;4959567;28;20210;-64
2023/06/04 07:42:16;;;;;;;5.73;1.50;;;17.40;49.60;;;;;;4959803;28;21179;-64
2023/06/04 07:44:41;;;;;;;5.77;1.00;;;17.40;48.30;;;;;;4959502;28;20202;-64
2023/06/04 07:47:07;;;;;;;1.33;1.10;;;17.50;50.00;;;;;;4959395;28;20357;-64
2023/06/04 07:49:32;;;;;;;1.90;0.70;;;17.50;50.50;;;;;;4957434;28;20216;-64
2023/06/04 07:51:58;;;;;;;1.13;1.03;;;17.50;51.00;;;;;;4954506;28;20261;-64
2023/06/04 07:54:23;;;;;;;1.83;1.00;;;17.50;50.00;;;;;;4956724;28;20214;-64
2023/06/04 07:56:49;;;;;;;2.73;1.03;;;17.50;49.40;;;;;;4956397;28;20744;-64
2023/06/04 07:59:14;;;;;;;2.33;1.27;;;17.60;48.90;;;;;;4959171;28;20208;-64
2023/06/04 08:01:40;;;;;;;0.77;0.77;;;17.60;50.10;;;;;;4959381;28;20199;-64
2023/06/04 08:04:05;;;;;;;1.07;0.90;;;17.70;49.00;;;;;;4957117;28;20565;-64
2023/06/04 08:06:31;;;;;;;1.30;1.20;;;17.70;48.40;;;;;;4959031;28;20669;-64
2023/06/04 08:08:57;;;;;;;2.07;1.00;;;17.90;49.10;;;;;;4954734;28;20735;-64
2023/06/04 08:11:25;;;;;;;1.07;1.00;;;18.00;50.90;;;;;;4959001;28;20726;-64
2023/06/04 08:13:51;;;;;;;1.43;0.97;;;17.90;50.20;;;;;;4959172;28;20203;-63
2023/06/04 08:16:16;;;;;;;1.07;1.00;;;17.80;51.00;;;;;;4957081;28;20210;-64
2023/06/04 08:18:42;;;;;;;0.87;0.87;;;17.80;50.90;;;;;;4950246;28;20206;-64
2023/06/04 08:21:11;;;;;;;2.03;0.87;;;17.80;50.20;;;;;;4956269;28;20576;-64
2023/06/04 08:23:37;;;;;;;1.60;1.23;;;18.00;48.70;;;;;;4953149;28;20243;-64
2023/06/04 08:26:03;;;;;;;1.80;1.20;;;18.00;49.10;;;;;;4954799;28;20694;-64
2023/06/04 08:28:28;;;;;;;2.40;1.23;;;18.10;48.50;;;;;;4958481;28;20566;-64
2023/06/04 08:30:54;;;;;;;1.10;0.90;;;18.20;46.40;;;;;;4958736;28;20244;-64
2023/06/04 08:33:20;;;;;;;2.40;1.40;;;18.30;47.00;;;;;;4958342;28;20236;-64
2023/06/04 08:35:45;;;;;;;1.57;1.10;;;18.40;48.70;;;;;;4958868;28;20202;-64
2023/06/04 08:38:10;;;;;;;4.87;0.80;;;18.40;47.90;;;;;;4958545;28;20204;-64
2023/06/04 08:40:36;;;;;;;2.17;1.13;;;18.40;48.10;;;;;;4956304;28;20250;-65
2023/06/04 08:43:01;;;;;;;2.13;1.00;;;18.30;47.90;;;;;;4956570;28;20195;-65
2023/06/04 08:45:27;;;;;;;1.70;0.90;;;18.30;48.00;;;;;;4952372;28;20210;-64
2023/06/04 08:47:56;;;;;;;2.10;1.00;;;18.40;46.80;;;;;;4956149;28;20566;-65
2023/06/04 08:50:24;;;;;;;1.20;1.20;;;18.40;48.60;;;;;;4957984;28;20200;-65
2023/06/04 08:52:54;;;;;;;2.40;2.20;;;18.40;47.20;;;;;;4956057;28;20234;-64
2023/06/04 08:55:20;;;;;;;2.93;1.23;;;18.70;45.00;;;;;;4958288;28;20260;-65
2023/06/04 08:57:48;;;;;;;7.23;5.07;;;18.90;44.70;;;;;;4958024;28;20203;-64
2023/06/04 09:00:15;;;;;;;9.20;6.57;;;18.90;45.90;;;;;;4958471;28;20234;-64
2023/06/04 09:02:41;;;;;;;3.77;2.43;;;18.90;45.20;;;;;;4957592;28;20689;-64
2023/06/04 09:05:10;;;;;;;3.53;1.70;;;18.90;45.30;;;;;;4957761;28;20291;-64
2023/06/04 09:07:37;;;;;;;1.60;1.50;;;19.00;44.60;;;;;;4957950;28;20702;-64
2023/06/04 09:10:06;;;;;;;1.90;1.60;;;18.90;44.50;;;;;;4958271;28;20208;-64
2023/06/04 09:12:35;;;;;;;1.57;1.47;;;18.90;45.80;;;;;;4955726;28;20681;-65
2023/06/04 09:15:00;;;;;;;2.20;1.50;;;18.90;46.30;;;;;;4957887;28;20203;-65
2023/06/04 09:17:28;;;;;;;2.20;1.10;;;18.90;46.70;;;;;;4957840;28;20226;-64
2023/06/04 09:19:53;;;;;;;1.67;1.03;;;18.90;44.60;;;;;;4952910;28;20259;-65
2023/06/04 09:22:19;;;;;;;1.97;1.00;;;18.90;43.80;;;;;;4951828;28;20212;-64
2023/06/04 09:24:46;;;;;;;1.10;1.10;;;18.90;43.60;;;;;;4956046;28;20212;-65
2023/06/04 09:27:13;;;;;;;1.57;1.37;;;19.20;44.70;;;;;;4957889;28;20738;-64
2023/06/04 09:29:40;;;;;;;0.90;0.90;;;19.40;44.90;;;;;;4957958;28;20239;-63
2023/06/04 09:32:06;;;;;;;3.97;2.57;;;19.50;44.40;;;;;;4956619;28;20224;-64
2023/06/04 09:34:31;;;;;;;1.30;1.20;;;19.50;44.00;;;;;;4952281;28;20280;-64
2023/06/04 09:36:58;;;;;;;2.47;1.27;;;19.40;43.80;;;;;;4957808;28;20294;-65
2023/06/04 09:39:23;;;;;;;1.33;1.23;;;19.60;43.30;;;;;;4954323;28;20212;-64
2023/06/04 09:42:07;;;;;;;4.00;3.60;;;19.80;42.00;;;;;;4957078;28;20211;-64
2023/06/04 09:44:44;;;;;;;2.30;1.40;;;19.90;43.10;;;;;;4961656;28;20207;-65
2023/06/04 09:47:09;;;;;;;2.27;1.27;;;19.90;43.40;;;;;;4961569;28;20203;-65
2023/06/04 09:49:45;;;;;;;3.37;1.40;;;20.00;42.10;;;;;;4961429;28;20207;-65
2023/06/04 09:52:12;;;;;;;1.20;1.10;;;20.00;41.90;;;;;;4961772;28;20216;-65
2023/06/04 09:54:39;;;;;;;3.07;1.50;;;20.20;42.60;;;;;;4961505;28;20203;-65
2023/06/04 09:57:16;;;;;;;1.90;1.20;;;20.20;42.80;;;;;;4961550;28;20536;-66
2023/06/04 09:59:44;;;;;;;1.63;0.97;;;20.30;42.20;;;;;;4958277;28;20220;-66
2023/06/04 10:02:11;;;;;;;1.17;0.70;;;20.40;42.60;;;;;;4956105;28;20197;-65
2023/06/04 10:04:44;;;;;;;2.50;1.40;;;20.50;42.50;;;;;;4959054;28;20243;-65
2023/06/04 10:07:12;;;;;;;1.73;1.30;;;20.60;42.30;;;;;;4949662;28;20231;-64
2023/06/04 10:09:45;;;;;;;1.50;1.37;;;20.60;41.00;;;;;;4956438;28;20209;-64
2023/06/04 10:12:15;;;;;;;1.17;1.00;;;20.70;40.30;;;;;;4959839;28;20224;-64
2023/06/04 10:14:57;;;;;;;3.97;2.87;;;20.70;42.30;;;;;;4951611;28;20209;-65
2023/06/04 10:17:24;;;;;;;1.17;1.10;;;20.60;42.50;;;;;;4959136;28;20284;-65
2023/06/04 10:19:54;;;;;;;3.20;1.00;;;20.60;42.30;;;;;;4957167;28;20200;-64
2023/06/04 10:22:22;;;;;;;0.97;0.97;;;20.60;41.10;;;;;;4960558;28;20273;-65
2023/06/04 10:24:48;;;;;;;3.27;1.70;;;20.60;41.10;;;;;;4960145;28;20223;-65
2023/06/04 10:27:16;;;;;;;3.43;1.57;;;20.70;40.20;;;;;;4960680;28;20213;-63
2023/06/04 10:29:42;;;;;;;4.07;1.57;;;20.80;39.10;;;;;;4960211;28;20245;-63
2023/06/04 10:32:08;;;;;;;0.90;0.90;;;21.00;41.20;;;;;;4960417;28;20252;-63
2023/06/04 10:34:35;;;;;;;1.50;0.90;;;21.00;40.60;;;;;;4960151;28;20732;-64
2023/06/04 10:37:00;;;;;;;2.80;1.10;;;21.10;41.80;;;;;;4960101;28;20223;-64
2023/06/04 10:39:34;;;;;;;2.03;1.20;;;21.40;38.80;;;;;;4956254;28;20652;-64
2023/06/04 10:42:02;;;;;;;1.60;1.00;;;21.40;38.50;;;;;;4951744;28;20209;-63
2023/06/04 10:44:29;;;;;;;1.87;1.00;;;21.30;38.80;;;;;;4960399;28;20205;-63
2023/06/04 10:46:54;;;;;;;1.37;1.27;;;21.20;38.20;;;;;;4960325;28;20237;-63
2023/06/04 10:49:27;;;;;;;1.63;1.27;;;21.10;38.90;;;;;;4960047;28;20236;-64
2023/06/04 10:51:55;;;;;;;1.80;1.10;;;21.10;40.90;;;;;;4959903;28;20652;-64
2023/06/04 10:54:25;;;;;;;4.27;1.53;;;21.00;39.40;;;;;;4960158;28;20207;-64
2023/06/04 10:56:51;;;;;;;5.87;1.50;;;21.10;40.80;;;;;;4958574;28;20347;-63
2023/06/04 10:59:18;;;;;;;1.50;1.40;;;21.40;39.50;;;;;;4952262;28;20715;-64
2023/06/04 11:01:44;;;;;;;1.23;1.17;;;21.60;38.30;;;;;;4959906;28;20272;-64
2023/06/04 11:04:23;;;;;;;1.50;1.40;;;22.00;38.00;;;;;;4955390;28;20210;-65
2023/06/04 11:07:04;;;;;;;1.80;1.20;;;22.20;38.30;;;;;;4958024;28;20229;-65
2023/06/04 11:09:31;;;;;;;2.47;0.93;;;22.00;38.60;;;;;;4955507;28;20284;-65
2023/06/04 11:11:59;;;;;;;1.10;1.00;;;22.00;39.00;;;;;;4960106;28;20205;-65
2023/06/04 11:14:25;;;;;;;1.83;1.30;;;22.10;38.30;;;;;;4957573;28;20331;-64
2023/06/04 11:16:51;;;;;;;2.40;1.40;;;22.60;37.40;;;;;;4959946;28;20990;-64
2023/06/04 11:19:17;;;;;;;1.40;1.30;;;22.90;38.30;;;;;;4959799;28;20256;-67
2023/06/04 11:21:43;;;;;;;1.30;1.20;;;22.90;38.00;;;;;;4958951;28;20256;-72
2023/06/04 11:24:09;;;;;;;2.22;1.23;;;23.10;37.40;;;;;;4956421;28;20221;-72
2023/06/04 11:26:36;;;;;;;1.67;1.57;;;23.30;36.40;;;;;;4959766;28;20217;-73
2023/06/04 11:29:06;;;;;;;1.50;1.40;;;23.30;35.90;;;;;;4959227;28;20299;-73
2023/06/04 11:31:46;;;;;;;2.05;1.00;;;23.00;36.30;;;;;;4959791;28;20605;-71
2023/06/04 11:34:23;;;;;;;1.50;1.40;;;22.80;36.50;;;;;;4958425;28;20242;-73
2023/06/04 11:36:49;;;;;;;1.65;1.10;;;23.10;35.40;;;;;;4958220;28;20197;-72
2023/06/04 11:39:15;;;;;;;3.78;1.55;;;23.40;34.90;;;;;;4944606;28;20206;-74
2023/06/04 11:41:42;;;;;;;3.45;1.40;;;23.40;38.60;;;;;;4927189;28;20198;-74
2023/06/04 11:44:08;;;;;;;1.30;1.05;;;23.40;39.60;;;;;;4944907;28;20202;-74
2023/06/04 11:46:35;;;;;;;2.05;1.30;;;23.50;36.80;;;;;;4944651;28;20669;-74
2023/06/04 11:49:02;;;;;;;1.05;1.05;;;23.80;40.00;;;;;;4945208;28;20233;-73
2023/06/04 11:51:28;;;;;;;1.45;1.30;;;23.70;36.80;;;;;;4945219;28;20194;-73
2023/06/04 11:53:55;;;;;;;1.30;1.20;;;23.70;40.60;;;;;;4943178;28;20217;-74
2023/06/04 11:56:21;;;;;;;9.82;1.25;;;23.70;40.60;;;;;;4944540;28;20215;-73
2023/06/04 11:58:47;;;;;;;1.67;1.17;;;23.80;38.80;;;;;;4944379;28;20292;-72
2023/06/04 12:01:13;;;;;;;3.08;1.10;;;23.70;36.30;;;;;;4958848;28;20709;-74
2023/06/04 12:03:42;;;;;;;1.52;1.42;;;23.70;39.80;;;;;;4953836;28;20214;-75
2023/06/04 12:06:19;;;;;;;1.15;1.05;;;24.00;38.40;;;;;;4950934;28;20203;-71
2023/06/04 12:08:52;;;;;;;1.40;1.30;;;24.60;37.90;;;;;;4959052;28;20211;-71
2023/06/04 12:11:28;;;;;;;1.45;0.95;;;24.20;35.20;;;;;;4958666;28;20217;-72
2023/06/04 12:14:04;;;;;;;2.53;1.42;;;24.40;38.80;;;;;;4958773;28;20320;-72
2023/06/04 12:16:29;;;;;;;1.35;1.25;;;24.60;34.90;;;;;;4958349;28;20204;-73
2023/06/04 12:19:25;;;;;;;1.38;1.27;;;25.00;33.50;;;;;;4956951;28;20270;-74
2023/06/04 12:22:06;;;;;;;1.35;1.13;;;25.00;37.60;;;;;;4936273;28;20211;-76
2023/06/04 12:24:35;;;;;;;1.90;1.75;;;24.90;36.30;;;;;;4957094;28;20215;-71
2023/06/04 12:27:06;;;;;;;2.17;1.30;;;24.90;37.30;;;;;;4957137;28;20226;-76
2023/06/04 12:29:32;;;;;;;4.03;1.27;;;24.70;37.30;;;;;;4958501;28;20257;-74
2023/06/04 12:32:09;;;;;;;3.70;1.65;;;24.70;37.30;;;;;;4958463;28;20341;-74
2023/06/04 12:34:35;;;;;;;5.18;1.40;;;24.60;36.90;;;;;;4926333;28;20208;-75
2023/06/04 12:37:03;;;;;;;3.90;1.38;;;24.70;36.70;;;;;;4957765;28;20192;-77
2023/06/04 12:39:29;;;;;;;2.17;1.38;;;24.80;38.20;;;;;;4954010;28;20242;-76
2023/06/04 12:41:55;;;;;;;1.23;1.15;;;25.00;34.50;;;;;;4958360;28;20215;-72
2023/06/04 12:44:21;;;;;;;1.88;1.15;;;25.30;38.70;;;;;;4958348;28;20200;-73
2023/06/04 12:46:46;;;;;;;2.30;1.20;;;25.50;38.20;;;;;;4956645;28;20299;-73